sensor_id;sensor_type;location;lat;lon;timestamp;P1;durP1;ratioP1;P2;durP2;ratioP2
32323;SDS011;25666;44.350;9.222;2023-07-31T00:00:32;10.70;;;7.20;;
32323;SDS011;25666;44.350;9.222;2023-07-31T00:02:58;11.93;;;8.18;;
32323;SDS011;25666;44.350;9.222;2023-07-31T00:05:23;12.32;;;7.93;;
32323;SDS011;25666;44.350;9.222;2023-07-31T00:07:49;13.40;;;7.25;;
32323;SDS011;25666;44.350;9.222;2023-07-31T00:10:14;12.43;;;6.75;;
32323;SDS011;25666;44.350;9.222;2023-07-31T00:12:42;12.75;;;8.95;;
32323;SDS011;25666;44.350;9.222;2023-07-31T00:15:08;15.65;;;7.38;;
32323;SDS011;25666;44.350;9.222;2023-07-31T00:17:34;9.82;;;7.68;;
32323;SDS011;25666;44.350;9.222;2023-07-31T00:20:00;12.10;;;8.20;;
32323;SDS011;25666;44.350;9.222;2023-07-31T00:22:26;12.57;;;8.55;;
32323;SDS011;25666;44.350;9.222;2023-07-31T00:24:52;16.63;;;7.57;;
32323;SDS011;25666;44.350;9.222;2023-07-31T00:27:17;10.85;;;6.90;;
32323;SDS011;25666;44.350;9.222;2023-07-31T00:29:43;10.38;;;7.60;;
32323;SDS011;25666;44.350;9.222;2023-07-31T00:32:08;16.05;;;8.32;;
32323;SDS011;25666;44.350;9.222;2023-07-31T00:34:36;22.63;;;8.35;;
32323;SDS011;25666;44.350;9.222;2023-07-31T00:37:02;16.00;;;9.25;;
32323;SDS011;25666;44.350;9.222;2023-07-31T00:39:27;17.92;;;9.00;;
32323;SDS011;25666;44.350;9.222;2023-07-31T00:41:53;13.23;;;7.53;;
32323;SDS011;25666;44.350;9.222;2023-07-31T00:44:18;13.13;;;8.15;;
32323;SDS011;25666;44.350;9.222;2023-07-31T00:46:44;13.38;;;8.10;;
32323;SDS011;25666;44.350;9.222;2023-07-31T00:49:10;25.88;;;9.57;;
32323;SDS011;25666;44.350;9.222;2023-07-31T00:51:36;14.73;;;9.07;;
32323;SDS011;25666;44.350;9.222;2023-07-31T00:54:01;12.52;;;8.93;;
32323;SDS011;25666;44.350;9.222;2023-07-31T00:56:28;15.50;;;8.48;;
32323;SDS011;25666;44.350;9.222;2023-07-31T00:58:54;14.48;;;8.77;;
32323;SDS011;25666;44.350;9.222;2023-07-31T01:01:20;13.65;;;8.25;;
32323;SDS011;25666;44.350;9.222;2023-07-31T01:03:46;13.70;;;7.78;;
32323;SDS011;25666;44.350;9.222;2023-07-31T01:09:40;13.90;;;8.05;;
32323;SDS011;25666;44.350;9.222;2023-07-31T01:12:04;15.13;;;7.53;;
32323;SDS011;25666;44.350;9.222;2023-07-31T01:14:32;11.35;;;7.85;;
32323;SDS011;25666;44.350;9.222;2023-07-31T01:16:58;13.55;;;7.95;;
32323;SDS011;25666;44.350;9.222;2023-07-31T01:19:24;14.80;;;7.45;;
32323;SDS011;25666;44.350;9.222;2023-07-31T01:24:59;12.32;;;7.68;;
32323;SDS011;25666;44.350;9.222;2023-07-31T01:27:44;15.00;;;8.20;;
32323;SDS011;25666;44.350;9.222;2023-07-31T01:30:20;10.20;;;8.13;;
32323;SDS011;25666;44.350;9.222;2023-07-31T01:35:16;11.50;;;7.25;;
32323;SDS011;25666;44.350;9.222;2023-07-31T01:37:42;17.08;;;9.32;;
32323;SDS011;25666;44.350;9.222;2023-07-31T01:40:08;18.33;;;9.35;;
32323;SDS011;25666;44.350;9.222;2023-07-31T01:42:34;21.90;;;8.82;;
32323;SDS011;25666;44.350;9.222;2023-07-31T01:45:00;20.55;;;9.23;;
32323;SDS011;25666;44.350;9.222;2023-07-31T01:47:25;14.52;;;8.18;;
32323;SDS011;25666;44.350;9.222;2023-07-31T01:49:51;19.08;;;9.77;;
32323;SDS011;25666;44.350;9.222;2023-07-31T01:52:16;16.17;;;8.40;;
32323;SDS011;25666;44.350;9.222;2023-07-31T01:54:42;13.90;;;8.68;;
32323;SDS011;25666;44.350;9.222;2023-07-31T01:57:07;14.98;;;8.23;;
32323;SDS011;25666;44.350;9.222;2023-07-31T01:59:33;16.73;;;8.52;;
32323;SDS011;25666;44.350;9.222;2023-07-31T02:01:58;15.98;;;7.72;;
32323;SDS011;25666;44.350;9.222;2023-07-31T02:04:24;10.82;;;7.63;;
32323;SDS011;25666;44.350;9.222;2023-07-31T02:06:49;15.23;;;8.27;;
32323;SDS011;25666;44.350;9.222;2023-07-31T02:09:15;16.70;;;8.30;;
32323;SDS011;25666;44.350;9.222;2023-07-31T02:11:40;14.63;;;7.85;;
32323;SDS011;25666;44.350;9.222;2023-07-31T02:14:06;10.88;;;6.95;;
32323;SDS011;25666;44.350;9.222;2023-07-31T02:16:32;13.98;;;7.63;;
32323;SDS011;25666;44.350;9.222;2023-07-31T02:19:00;12.45;;;6.88;;
32323;SDS011;25666;44.350;9.222;2023-07-31T02:21:25;12.15;;;7.03;;
32323;SDS011;25666;44.350;9.222;2023-07-31T02:23:50;10.00;;;6.70;;
32323;SDS011;25666;44.350;9.222;2023-07-31T02:26:17;11.73;;;6.55;;
32323;SDS011;25666;44.350;9.222;2023-07-31T02:28:43;12.73;;;7.93;;
32323;SDS011;25666;44.350;9.222;2023-07-31T02:31:09;9.82;;;6.85;;
32323;SDS011;25666;44.350;9.222;2023-07-31T02:33:35;11.55;;;6.93;;
32323;SDS011;25666;44.350;9.222;2023-07-31T02:36:00;15.60;;;7.18;;
32323;SDS011;25666;44.350;9.222;2023-07-31T02:38:26;17.73;;;7.82;;
32323;SDS011;25666;44.350;9.222;2023-07-31T02:40:52;15.32;;;8.05;;
32323;SDS011;25666;44.350;9.222;2023-07-31T02:43:17;16.70;;;8.30;;
32323;SDS011;25666;44.350;9.222;2023-07-31T02:45:43;17.02;;;7.57;;
32323;SDS011;25666;44.350;9.222;2023-07-31T02:48:10;13.52;;;8.40;;
32323;SDS011;25666;44.350;9.222;2023-07-31T02:50:36;13.00;;;8.02;;
32323;SDS011;25666;44.350;9.222;2023-07-31T02:53:02;13.23;;;8.98;;
32323;SDS011;25666;44.350;9.222;2023-07-31T02:55:27;17.70;;;8.15;;
32323;SDS011;25666;44.350;9.222;2023-07-31T02:57:53;12.10;;;7.82;;
32323;SDS011;25666;44.350;9.222;2023-07-31T03:00:20;15.20;;;9.43;;
32323;SDS011;25666;44.350;9.222;2023-07-31T03:02:45;18.52;;;9.18;;
32323;SDS011;25666;44.350;9.222;2023-07-31T03:05:11;14.00;;;8.90;;
32323;SDS011;25666;44.350;9.222;2023-07-31T03:07:36;19.00;;;9.25;;
32323;SDS011;25666;44.350;9.222;2023-07-31T03:10:02;13.57;;;8.90;;
32323;SDS011;25666;44.350;9.222;2023-07-31T03:12:27;10.82;;;7.40;;
32323;SDS011;25666;44.350;9.222;2023-07-31T03:14:53;14.18;;;7.10;;
32323;SDS011;25666;44.350;9.222;2023-07-31T03:17:19;13.27;;;7.57;;
32323;SDS011;25666;44.350;9.222;2023-07-31T03:19:44;18.00;;;9.05;;
32323;SDS011;25666;44.350;9.222;2023-07-31T03:22:10;16.17;;;8.57;;
32323;SDS011;25666;44.350;9.222;2023-07-31T03:24:35;18.98;;;9.00;;
32323;SDS011;25666;44.350;9.222;2023-07-31T03:27:01;18.75;;;9.35;;
32323;SDS011;25666;44.350;9.222;2023-07-31T03:29:26;13.63;;;8.68;;
32323;SDS011;25666;44.350;9.222;2023-07-31T03:31:52;16.52;;;9.98;;
32323;SDS011;25666;44.350;9.222;2023-07-31T03:34:17;15.40;;;7.95;;
32323;SDS011;25666;44.350;9.222;2023-07-31T03:36:43;15.05;;;9.02;;
32323;SDS011;25666;44.350;9.222;2023-07-31T03:39:09;12.00;;;8.00;;
32323;SDS011;25666;44.350;9.222;2023-07-31T03:41:35;19.83;;;9.10;;
32323;SDS011;25666;44.350;9.222;2023-07-31T03:44:00;16.75;;;8.35;;
32323;SDS011;25666;44.350;9.222;2023-07-31T03:46:26;14.73;;;7.88;;
32323;SDS011;25666;44.350;9.222;2023-07-31T03:48:51;13.88;;;8.30;;
32323;SDS011;25666;44.350;9.222;2023-07-31T03:51:17;17.45;;;7.72;;
32323;SDS011;25666;44.350;9.222;2023-07-31T03:53:43;11.38;;;8.45;;
32323;SDS011;25666;44.350;9.222;2023-07-31T03:56:09;10.77;;;7.72;;
32323;SDS011;25666;44.350;9.222;2023-07-31T03:58:34;13.15;;;8.18;;
32323;SDS011;25666;44.350;9.222;2023-07-31T04:01:02;19.00;;;8.85;;
32323;SDS011;25666;44.350;9.222;2023-07-31T04:03:28;17.77;;;8.88;;
32323;SDS011;25666;44.350;9.222;2023-07-31T04:05:54;16.20;;;7.90;;
32323;SDS011;25666;44.350;9.222;2023-07-31T04:08:21;19.08;;;9.15;;
32323;SDS011;25666;44.350;9.222;2023-07-31T04:10:47;14.38;;;7.80;;
32323;SDS011;25666;44.350;9.222;2023-07-31T04:13:12;13.40;;;8.13;;
32323;SDS011;25666;44.350;9.222;2023-07-31T04:15:38;13.23;;;8.73;;
32323;SDS011;25666;44.350;9.222;2023-07-31T04:18:04;14.85;;;8.50;;
32323;SDS011;25666;44.350;9.222;2023-07-31T04:20:30;13.95;;;8.10;;
32323;SDS011;25666;44.350;9.222;2023-07-31T04:22:55;16.98;;;8.35;;
32323;SDS011;25666;44.350;9.222;2023-07-31T04:25:21;20.77;;;9.35;;
32323;SDS011;25666;44.350;9.222;2023-07-31T04:27:47;18.25;;;9.05;;
32323;SDS011;25666;44.350;9.222;2023-07-31T04:30:12;20.42;;;9.02;;
32323;SDS011;25666;44.350;9.222;2023-07-31T04:32:38;17.25;;;8.80;;
32323;SDS011;25666;44.350;9.222;2023-07-31T04:35:03;14.15;;;8.02;;
32323;SDS011;25666;44.350;9.222;2023-07-31T04:37:29;17.02;;;8.30;;
32323;SDS011;25666;44.350;9.222;2023-07-31T04:39:55;13.82;;;8.10;;
32323;SDS011;25666;44.350;9.222;2023-07-31T04:42:20;20.17;;;8.80;;
32323;SDS011;25666;44.350;9.222;2023-07-31T04:44:46;16.27;;;8.30;;
32323;SDS011;25666;44.350;9.222;2023-07-31T04:47:11;13.50;;;8.93;;
32323;SDS011;25666;44.350;9.222;2023-07-31T04:49:37;16.55;;;8.38;;
32323;SDS011;25666;44.350;9.222;2023-07-31T04:52:02;15.10;;;8.80;;
32323;SDS011;25666;44.350;9.222;2023-07-31T04:54:28;16.42;;;9.88;;
32323;SDS011;25666;44.350;9.222;2023-07-31T04:56:54;20.67;;;10.20;;
32323;SDS011;25666;44.350;9.222;2023-07-31T04:59:19;17.30;;;8.82;;
32323;SDS011;25666;44.350;9.222;2023-07-31T05:01:45;15.30;;;8.00;;
32323;SDS011;25666;44.350;9.222;2023-07-31T05:04:13;12.07;;;6.95;;
32323;SDS011;25666;44.350;9.222;2023-07-31T05:06:40;13.65;;;8.65;;
32323;SDS011;25666;44.350;9.222;2023-07-31T05:09:06;17.15;;;7.90;;
32323;SDS011;25666;44.350;9.222;2023-07-31T05:11:34;19.13;;;7.90;;
32323;SDS011;25666;44.350;9.222;2023-07-31T05:14:00;14.18;;;8.32;;
32323;SDS011;25666;44.350;9.222;2023-07-31T05:16:25;16.63;;;8.07;;
32323;SDS011;25666;44.350;9.222;2023-07-31T05:18:51;14.05;;;7.50;;
32323;SDS011;25666;44.350;9.222;2023-07-31T05:21:16;18.55;;;8.02;;
32323;SDS011;25666;44.350;9.222;2023-07-31T05:23:42;16.55;;;7.88;;
32323;SDS011;25666;44.350;9.222;2023-07-31T05:26:07;10.93;;;7.75;;
32323;SDS011;25666;44.350;9.222;2023-07-31T05:28:35;13.18;;;7.22;;
32323;SDS011;25666;44.350;9.222;2023-07-31T05:31:01;11.70;;;7.43;;
32323;SDS011;25666;44.350;9.222;2023-07-31T05:33:27;11.52;;;8.02;;
32323;SDS011;25666;44.350;9.222;2023-07-31T05:35:53;14.77;;;7.40;;
32323;SDS011;25666;44.350;9.222;2023-07-31T05:38:19;14.23;;;7.53;;
32323;SDS011;25666;44.350;9.222;2023-07-31T05:40:44;14.38;;;8.00;;
32323;SDS011;25666;44.350;9.222;2023-07-31T05:43:10;11.48;;;7.38;;
32323;SDS011;25666;44.350;9.222;2023-07-31T05:45:35;13.70;;;5.95;;
32323;SDS011;25666;44.350;9.222;2023-07-31T05:48:02;13.25;;;7.55;;
32323;SDS011;25666;44.350;9.222;2023-07-31T05:50:27;15.68;;;7.47;;
32323;SDS011;25666;44.350;9.222;2023-07-31T05:52:53;12.82;;;6.75;;
32323;SDS011;25666;44.350;9.222;2023-07-31T05:55:19;16.80;;;6.20;;
32323;SDS011;25666;44.350;9.222;2023-07-31T05:57:44;14.02;;;6.60;;
32323;SDS011;25666;44.350;9.222;2023-07-31T06:00:12;12.55;;;5.53;;
32323;SDS011;25666;44.350;9.222;2023-07-31T06:02:38;10.57;;;6.68;;
32323;SDS011;25666;44.350;9.222;2023-07-31T06:05:04;12.50;;;6.63;;
32323;SDS011;25666;44.350;9.222;2023-07-31T06:07:33;11.07;;;5.68;;
32323;SDS011;25666;44.350;9.222;2023-07-31T06:09:58;12.88;;;5.78;;
32323;SDS011;25666;44.350;9.222;2023-07-31T06:12:30;12.98;;;5.93;;
32323;SDS011;25666;44.350;9.222;2023-07-31T06:14:56;17.05;;;5.38;;
32323;SDS011;25666;44.350;9.222;2023-07-31T06:17:22;7.78;;;4.70;;
32323;SDS011;25666;44.350;9.222;2023-07-31T06:19:48;13.20;;;5.38;;
32323;SDS011;25666;44.350;9.222;2023-07-31T06:22:14;10.10;;;5.50;;
32323;SDS011;25666;44.350;9.222;2023-07-31T06:24:40;12.05;;;5.72;;
32323;SDS011;25666;44.350;9.222;2023-07-31T06:27:05;10.90;;;5.53;;
32323;SDS011;25666;44.350;9.222;2023-07-31T06:29:31;8.82;;;5.22;;
32323;SDS011;25666;44.350;9.222;2023-07-31T06:31:57;8.80;;;5.40;;
32323;SDS011;25666;44.350;9.222;2023-07-31T06:34:22;12.30;;;4.75;;
32323;SDS011;25666;44.350;9.222;2023-07-31T06:36:48;11.88;;;6.07;;
32323;SDS011;25666;44.350;9.222;2023-07-31T06:39:13;9.02;;;4.60;;
32323;SDS011;25666;44.350;9.222;2023-07-31T06:41:39;11.23;;;5.38;;
32323;SDS011;25666;44.350;9.222;2023-07-31T06:44:08;6.85;;;4.63;;
32323;SDS011;25666;44.350;9.222;2023-07-31T06:46:33;7.82;;;4.68;;
32323;SDS011;25666;44.350;9.222;2023-07-31T06:48:59;9.45;;;4.78;;
32323;SDS011;25666;44.350;9.222;2023-07-31T06:51:25;8.05;;;4.78;;
32323;SDS011;25666;44.350;9.222;2023-07-31T06:53:50;9.35;;;4.45;;
32323;SDS011;25666;44.350;9.222;2023-07-31T06:56:16;9.32;;;4.15;;
32323;SDS011;25666;44.350;9.222;2023-07-31T06:58:41;9.55;;;4.35;;
32323;SDS011;25666;44.350;9.222;2023-07-31T07:01:07;13.23;;;4.80;;
32323;SDS011;25666;44.350;9.222;2023-07-31T07:03:33;7.95;;;4.75;;
32323;SDS011;25666;44.350;9.222;2023-07-31T07:05:58;10.82;;;4.50;;
32323;SDS011;25666;44.350;9.222;2023-07-31T07:08:24;11.95;;;5.15;;
32323;SDS011;25666;44.350;9.222;2023-07-31T07:10:50;10.57;;;4.82;;
32323;SDS011;25666;44.350;9.222;2023-07-31T07:13:15;7.43;;;4.10;;
32323;SDS011;25666;44.350;9.222;2023-07-31T07:15:41;8.10;;;3.90;;
32323;SDS011;25666;44.350;9.222;2023-07-31T07:18:06;7.88;;;4.22;;
32323;SDS011;25666;44.350;9.222;2023-07-31T07:20:32;6.50;;;4.82;;
32323;SDS011;25666;44.350;9.222;2023-07-31T07:22:57;7.45;;;4.43;;
32323;SDS011;25666;44.350;9.222;2023-07-31T07:25:23;7.97;;;4.47;;
32323;SDS011;25666;44.350;9.222;2023-07-31T07:27:49;7.40;;;4.10;;
32323;SDS011;25666;44.350;9.222;2023-07-31T07:30:14;5.25;;;4.53;;
32323;SDS011;25666;44.350;9.222;2023-07-31T07:32:40;5.57;;;4.18;;
32323;SDS011;25666;44.350;9.222;2023-07-31T07:35:05;5.82;;;4.15;;
32323;SDS011;25666;44.350;9.222;2023-07-31T07:37:32;8.25;;;4.15;;
32323;SDS011;25666;44.350;9.222;2023-07-31T07:39:57;8.48;;;4.10;;
32323;SDS011;25666;44.350;9.222;2023-07-31T07:42:23;5.95;;;4.68;;
32323;SDS011;25666;44.350;9.222;2023-07-31T07:44:48;6.68;;;4.10;;
32323;SDS011;25666;44.350;9.222;2023-07-31T07:47:14;6.72;;;4.30;;
32323;SDS011;25666;44.350;9.222;2023-07-31T07:49:39;4.03;;;3.35;;
32323;SDS011;25666;44.350;9.222;2023-07-31T07:52:05;9.30;;;3.80;;
32323;SDS011;25666;44.350;9.222;2023-07-31T07:54:31;10.57;;;4.78;;
32323;SDS011;25666;44.350;9.222;2023-07-31T07:56:56;10.98;;;4.20;;
32323;SDS011;25666;44.350;9.222;2023-07-31T07:59:22;8.60;;;3.67;;
32323;SDS011;25666;44.350;9.222;2023-07-31T08:01:47;10.40;;;4.18;;
32323;SDS011;25666;44.350;9.222;2023-07-31T08:04:13;6.93;;;3.75;;
32323;SDS011;25666;44.350;9.222;2023-07-31T08:06:38;7.50;;;3.95;;
32323;SDS011;25666;44.350;9.222;2023-07-31T08:09:04;9.75;;;3.70;;
32323;SDS011;25666;44.350;9.222;2023-07-31T08:11:34;9.05;;;3.65;;
32323;SDS011;25666;44.350;9.222;2023-07-31T08:14:00;7.72;;;3.65;;
32323;SDS011;25666;44.350;9.222;2023-07-31T08:16:26;6.50;;;4.03;;
32323;SDS011;25666;44.350;9.222;2023-07-31T08:18:51;13.18;;;4.07;;
32323;SDS011;25666;44.350;9.222;2023-07-31T08:21:17;10.10;;;4.45;;
32323;SDS011;25666;44.350;9.222;2023-07-31T08:23:42;7.13;;;4.15;;
32323;SDS011;25666;44.350;9.222;2023-07-31T08:26:13;11.13;;;4.20;;
32323;SDS011;25666;44.350;9.222;2023-07-31T08:28:40;7.28;;;4.10;;
32323;SDS011;25666;44.350;9.222;2023-07-31T08:31:05;7.80;;;4.25;;
32323;SDS011;25666;44.350;9.222;2023-07-31T08:33:31;10.68;;;5.00;;
32323;SDS011;25666;44.350;9.222;2023-07-31T08:35:56;15.65;;;4.25;;
32323;SDS011;25666;44.350;9.222;2023-07-31T08:38:22;8.63;;;4.35;;
32323;SDS011;25666;44.350;9.222;2023-07-31T08:40:50;17.45;;;5.50;;
32323;SDS011;25666;44.350;9.222;2023-07-31T08:43:16;7.78;;;4.25;;
32323;SDS011;25666;44.350;9.222;2023-07-31T08:45:41;13.05;;;3.97;;
32323;SDS011;25666;44.350;9.222;2023-07-31T08:48:08;17.98;;;4.65;;
32323;SDS011;25666;44.350;9.222;2023-07-31T08:50:33;12.30;;;4.68;;
32323;SDS011;25666;44.350;9.222;2023-07-31T08:52:59;9.60;;;4.38;;
32323;SDS011;25666;44.350;9.222;2023-07-31T08:55:25;12.38;;;4.80;;
32323;SDS011;25666;44.350;9.222;2023-07-31T08:57:52;14.02;;;4.20;;
32323;SDS011;25666;44.350;9.222;2023-07-31T09:00:20;10.32;;;5.18;;
32323;SDS011;25666;44.350;9.222;2023-07-31T09:02:54;8.70;;;3.90;;
32323;SDS011;25666;44.350;9.222;2023-07-31T09:05:24;8.80;;;3.65;;
32323;SDS011;25666;44.350;9.222;2023-07-31T09:07:51;14.23;;;4.40;;
32323;SDS011;25666;44.350;9.222;2023-07-31T09:10:18;11.10;;;4.53;;
32323;SDS011;25666;44.350;9.222;2023-07-31T09:12:43;16.63;;;4.65;;
32323;SDS011;25666;44.350;9.222;2023-07-31T09:15:11;11.23;;;3.70;;
32323;SDS011;25666;44.350;9.222;2023-07-31T09:17:36;15.90;;;5.60;;
32323;SDS011;25666;44.350;9.222;2023-07-31T09:20:21;13.57;;;4.05;;
32323;SDS011;25666;44.350;9.222;2023-07-31T09:22:47;8.93;;;4.53;;
32323;SDS011;25666;44.350;9.222;2023-07-31T09:27:53;11.77;;;3.70;;
32323;SDS011;25666;44.350;9.222;2023-07-31T09:30:22;10.90;;;3.90;;
32323;SDS011;25666;44.350;9.222;2023-07-31T09:32:48;15.88;;;3.90;;
32323;SDS011;25666;44.350;9.222;2023-07-31T09:35:22;13.27;;;4.53;;
32323;SDS011;25666;44.350;9.222;2023-07-31T09:37:53;9.48;;;3.88;;
32323;SDS011;25666;44.350;9.222;2023-07-31T09:40:34;9.80;;;4.38;;
32323;SDS011;25666;44.350;9.222;2023-07-31T09:43:03;11.77;;;3.92;;
32323;SDS011;25666;44.350;9.222;2023-07-31T09:45:30;17.48;;;4.55;;
32323;SDS011;25666;44.350;9.222;2023-07-31T09:47:59;11.85;;;4.25;;
32323;SDS011;25666;44.350;9.222;2023-07-31T09:50:25;15.50;;;3.78;;
32323;SDS011;25666;44.350;9.222;2023-07-31T09:52:51;14.20;;;4.55;;
32323;SDS011;25666;44.350;9.222;2023-07-31T09:55:17;14.30;;;3.72;;
32323;SDS011;25666;44.350;9.222;2023-07-31T09:57:45;17.52;;;4.25;;
32323;SDS011;25666;44.350;9.222;2023-07-31T10:00:12;13.07;;;3.97;;
32323;SDS011;25666;44.350;9.222;2023-07-31T10:02:40;11.60;;;4.05;;
32323;SDS011;25666;44.350;9.222;2023-07-31T10:05:07;13.18;;;4.22;;
32323;SDS011;25666;44.350;9.222;2023-07-31T10:07:37;13.65;;;4.72;;
32323;SDS011;25666;44.350;9.222;2023-07-31T10:10:04;11.67;;;4.87;;
32323;SDS011;25666;44.350;9.222;2023-07-31T10:12:33;12.95;;;4.13;;
32323;SDS011;25666;44.350;9.222;2023-07-31T10:14:59;14.95;;;4.15;;
32323;SDS011;25666;44.350;9.222;2023-07-31T10:17:25;10.38;;;3.60;;
32323;SDS011;25666;44.350;9.222;2023-07-31T10:19:51;13.82;;;3.97;;
32323;SDS011;25666;44.350;9.222;2023-07-31T10:22:18;12.63;;;4.70;;
32323;SDS011;25666;44.350;9.222;2023-07-31T10:24:45;11.55;;;4.18;;
32323;SDS011;25666;44.350;9.222;2023-07-31T10:27:11;15.82;;;4.07;;
32323;SDS011;25666;44.350;9.222;2023-07-31T10:29:38;12.00;;;4.38;;
32323;SDS011;25666;44.350;9.222;2023-07-31T10:32:05;10.70;;;4.43;;
32323;SDS011;25666;44.350;9.222;2023-07-31T10:34:35;22.13;;;6.28;;
32323;SDS011;25666;44.350;9.222;2023-07-31T10:39:55;12.40;;;4.40;;
32323;SDS011;25666;44.350;9.222;2023-07-31T10:42:33;13.13;;;4.40;;
32323;SDS011;25666;44.350;9.222;2023-07-31T10:45:07;14.48;;;4.32;;
32323;SDS011;25666;44.350;9.222;2023-07-31T10:47:38;15.43;;;4.00;;
32323;SDS011;25666;44.350;9.222;2023-07-31T10:52:36;12.15;;;4.18;;
32323;SDS011;25666;44.350;9.222;2023-07-31T10:58:11;7.50;;;4.47;;
32323;SDS011;25666;44.350;9.222;2023-07-31T11:00:38;10.48;;;4.50;;
32323;SDS011;25666;44.350;9.222;2023-07-31T11:03:09;15.93;;;4.93;;
32323;SDS011;25666;44.350;9.222;2023-07-31T11:05:53;16.27;;;4.57;;
32323;SDS011;25666;44.350;9.222;2023-07-31T11:08:32;12.40;;;3.75;;
32323;SDS011;25666;44.350;9.222;2023-07-31T11:16:10;9.45;;;3.92;;
32323;SDS011;25666;44.350;9.222;2023-07-31T11:18:38;12.15;;;4.10;;
32323;SDS011;25666;44.350;9.222;2023-07-31T11:21:08;15.70;;;3.90;;
32323;SDS011;25666;44.350;9.222;2023-07-31T11:23:40;7.85;;;4.32;;
32323;SDS011;25666;44.350;9.222;2023-07-31T11:26:06;19.67;;;5.13;;
32323;SDS011;25666;44.350;9.222;2023-07-31T11:28:32;13.68;;;4.65;;
32323;SDS011;25666;44.350;9.222;2023-07-31T11:30:59;8.50;;;4.03;;
32323;SDS011;25666;44.350;9.222;2023-07-31T11:33:25;18.23;;;4.63;;
32323;SDS011;25666;44.350;9.222;2023-07-31T11:35:51;14.40;;;4.07;;
32323;SDS011;25666;44.350;9.222;2023-07-31T11:40:56;13.35;;;3.90;;
32323;SDS011;25666;44.350;9.222;2023-07-31T11:43:24;9.93;;;4.00;;
32323;SDS011;25666;44.350;9.222;2023-07-31T11:45:52;14.18;;;4.53;;
32323;SDS011;25666;44.350;9.222;2023-07-31T11:48:24;18.60;;;5.28;;
32323;SDS011;25666;44.350;9.222;2023-07-31T11:50:52;9.93;;;4.03;;
32323;SDS011;25666;44.350;9.222;2023-07-31T11:53:30;8.95;;;4.97;;
32323;SDS011;25666;44.350;9.222;2023-07-31T11:56:00;9.05;;;4.45;;
32323;SDS011;25666;44.350;9.222;2023-07-31T11:58:29;12.68;;;4.57;;
32323;SDS011;25666;44.350;9.222;2023-07-31T12:00:56;9.63;;;4.72;;
32323;SDS011;25666;44.350;9.222;2023-07-31T12:03:23;9.38;;;3.92;;
32323;SDS011;25666;44.350;9.222;2023-07-31T12:05:49;9.07;;;4.10;;
32323;SDS011;25666;44.350;9.222;2023-07-31T12:08:14;8.30;;;4.15;;
32323;SDS011;25666;44.350;9.222;2023-07-31T12:10:41;10.95;;;4.57;;
32323;SDS011;25666;44.350;9.222;2023-07-31T12:13:10;9.23;;;4.15;;
32323;SDS011;25666;44.350;9.222;2023-07-31T12:15:42;7.57;;;4.38;;
32323;SDS011;25666;44.350;9.222;2023-07-31T12:18:09;13.75;;;4.43;;
32323;SDS011;25666;44.350;9.222;2023-07-31T12:20:40;9.80;;;4.30;;
32323;SDS011;25666;44.350;9.222;2023-07-31T12:23:17;10.48;;;3.60;;
32323;SDS011;25666;44.350;9.222;2023-07-31T12:25:59;6.57;;;3.40;;
32323;SDS011;25666;44.350;9.222;2023-07-31T12:28:25;9.60;;;4.25;;
32323;SDS011;25666;44.350;9.222;2023-07-31T12:30:51;20.30;;;5.43;;
32323;SDS011;25666;44.350;9.222;2023-07-31T12:33:16;20.27;;;4.60;;
32323;SDS011;25666;44.350;9.222;2023-07-31T12:35:45;20.05;;;5.63;;
32323;SDS011;25666;44.350;9.222;2023-07-31T12:38:12;16.40;;;4.20;;
32323;SDS011;25666;44.350;9.222;2023-07-31T12:40:39;19.33;;;6.10;;
32323;SDS011;25666;44.350;9.222;2023-07-31T12:43:06;17.95;;;4.68;;
32323;SDS011;25666;44.350;9.222;2023-07-31T12:45:32;12.10;;;5.40;;
32323;SDS011;25666;44.350;9.222;2023-07-31T12:47:59;14.45;;;4.43;;
32323;SDS011;25666;44.350;9.222;2023-07-31T12:50:25;15.00;;;4.13;;
32323;SDS011;25666;44.350;9.222;2023-07-31T12:52:52;13.38;;;4.65;;
32323;SDS011;25666;44.350;9.222;2023-07-31T12:55:18;9.98;;;4.68;;
32323;SDS011;25666;44.350;9.222;2023-07-31T12:57:44;17.10;;;4.40;;
32323;SDS011;25666;44.350;9.222;2023-07-31T13:00:10;15.60;;;4.43;;
32323;SDS011;25666;44.350;9.222;2023-07-31T13:02:36;12.07;;;4.78;;
32323;SDS011;25666;44.350;9.222;2023-07-31T13:05:02;10.25;;;4.72;;
32323;SDS011;25666;44.350;9.222;2023-07-31T13:07:27;12.25;;;4.35;;
32323;SDS011;25666;44.350;9.222;2023-07-31T13:09:53;14.30;;;4.03;;
32323;SDS011;25666;44.350;9.222;2023-07-31T13:12:18;15.80;;;4.28;;
32323;SDS011;25666;44.350;9.222;2023-07-31T13:14:44;9.63;;;4.20;;
32323;SDS011;25666;44.350;9.222;2023-07-31T13:17:10;10.07;;;4.10;;
32323;SDS011;25666;44.350;9.222;2023-07-31T13:19:35;13.50;;;4.55;;
32323;SDS011;25666;44.350;9.222;2023-07-31T13:22:01;9.98;;;3.95;;
32323;SDS011;25666;44.350;9.222;2023-07-31T13:24:26;7.82;;;4.60;;
32323;SDS011;25666;44.350;9.222;2023-07-31T13:26:52;11.02;;;4.15;;
32323;SDS011;25666;44.350;9.222;2023-07-31T13:29:17;14.15;;;4.10;;
32323;SDS011;25666;44.350;9.222;2023-07-31T13:31:43;15.68;;;5.28;;
32323;SDS011;25666;44.350;9.222;2023-07-31T13:34:08;13.90;;;3.95;;
32323;SDS011;25666;44.350;9.222;2023-07-31T13:36:34;8.73;;;3.15;;
32323;SDS011;25666;44.350;9.222;2023-07-31T13:39:02;7.45;;;3.42;;
32323;SDS011;25666;44.350;9.222;2023-07-31T13:41:28;12.93;;;3.83;;
32323;SDS011;25666;44.350;9.222;2023-07-31T13:43:53;11.38;;;4.38;;
32323;SDS011;25666;44.350;9.222;2023-07-31T13:46:19;8.88;;;3.63;;
32323;SDS011;25666;44.350;9.222;2023-07-31T13:48:44;13.63;;;4.43;;
32323;SDS011;25666;44.350;9.222;2023-07-31T13:51:10;13.32;;;3.78;;
32323;SDS011;25666;44.350;9.222;2023-07-31T13:53:35;18.48;;;4.10;;
32323;SDS011;25666;44.350;9.222;2023-07-31T13:56:01;13.88;;;4.40;;
32323;SDS011;25666;44.350;9.222;2023-07-31T13:58:27;14.73;;;4.75;;
32323;SDS011;25666;44.350;9.222;2023-07-31T14:00:52;13.85;;;4.15;;
32323;SDS011;25666;44.350;9.222;2023-07-31T14:03:18;10.40;;;3.55;;
32323;SDS011;25666;44.350;9.222;2023-07-31T14:05:43;11.10;;;4.15;;
32323;SDS011;25666;44.350;9.222;2023-07-31T14:08:09;13.55;;;4.25;;
32323;SDS011;25666;44.350;9.222;2023-07-31T14:10:34;13.65;;;3.63;;
32323;SDS011;25666;44.350;9.222;2023-07-31T14:13:00;9.80;;;4.00;;
32323;SDS011;25666;44.350;9.222;2023-07-31T14:15:25;12.63;;;4.22;;
32323;SDS011;25666;44.350;9.222;2023-07-31T14:17:51;13.30;;;3.45;;
32323;SDS011;25666;44.350;9.222;2023-07-31T14:20:16;6.43;;;3.22;;
32323;SDS011;25666;44.350;9.222;2023-07-31T14:22:42;13.65;;;4.15;;
32323;SDS011;25666;44.350;9.222;2023-07-31T14:25:07;7.25;;;3.75;;
32323;SDS011;25666;44.350;9.222;2023-07-31T14:27:35;6.60;;;3.92;;
32323;SDS011;25666;44.350;9.222;2023-07-31T14:30:01;5.78;;;3.38;;
32323;SDS011;25666;44.350;9.222;2023-07-31T14:32:27;13.45;;;4.05;;
32323;SDS011;25666;44.350;9.222;2023-07-31T14:34:52;8.20;;;3.55;;
32323;SDS011;25666;44.350;9.222;2023-07-31T14:37:19;10.95;;;4.10;;
32323;SDS011;25666;44.350;9.222;2023-07-31T14:39:45;13.65;;;3.95;;
32323;SDS011;25666;44.350;9.222;2023-07-31T14:42:10;11.93;;;3.60;;
32323;SDS011;25666;44.350;9.222;2023-07-31T14:44:36;10.38;;;3.70;;
32323;SDS011;25666;44.350;9.222;2023-07-31T14:47:02;22.42;;;4.30;;
32323;SDS011;25666;44.350;9.222;2023-07-31T14:49:27;11.70;;;3.95;;
32323;SDS011;25666;44.350;9.222;2023-07-31T14:51:53;9.43;;;3.25;;
32323;SDS011;25666;44.350;9.222;2023-07-31T14:54:19;5.82;;;3.58;;
32323;SDS011;25666;44.350;9.222;2023-07-31T14:56:45;8.90;;;4.10;;
32323;SDS011;25666;44.350;9.222;2023-07-31T14:59:11;8.60;;;3.45;;
32323;SDS011;25666;44.350;9.222;2023-07-31T15:01:37;11.15;;;3.88;;